Terminal Aerodrome Forecast
Issued by NWS

Home | Current Version | Previous Version | Text Only | Print | Product List | Glossary Off
Versions: 1 2 3 4 5 6 7 8 9 10 11 12 13 14 15 16 17 18 19

000
FTUS43 KMPX 181742
TAFAXN
TAF
KAXN 181742Z 1818/1918 18018G27KT P6SM SCT050 BKN200
     FM190100 27009KT P6SM BKN060
     FM190600 33015KT P6SM SCT007 OVC010
     FM191600 01018G26KT P6SM SCT010=

USA.gov is the U.S. government's official web portal to all federal, state and local government web resources and services.